sensor_id;sensor_type;location;lat;lon;timestamp;pressure;altitude;pressure_sealevel;temperature;humidity
19150;BME280;9707;49.158;8.632;2023-01-30T00:00:18;101212.53;;;15.42;28.08
19150;BME280;9707;49.158;8.632;2023-01-30T00:02:43;101197.34;;;15.41;28.28
19150;BME280;9707;49.158;8.632;2023-01-30T00:05:08;101181.25;;;15.41;27.94
19150;BME280;9707;49.158;8.632;2023-01-30T00:07:34;101176.81;;;15.40;28.39
19150;BME280;9707;49.158;8.632;2023-01-30T00:09:59;101177.63;;;15.42;28.43
19150;BME280;9707;49.158;8.632;2023-01-30T00:12:24;101181.25;;;15.41;27.59
19150;BME280;9707;49.158;8.632;2023-01-30T00:14:49;101188.41;;;15.40;28.00
19150;BME280;9707;49.158;8.632;2023-01-30T00:17:15;101196.53;;;15.39;27.80
19150;BME280;9707;49.158;8.632;2023-01-30T00:19:40;101198.44;;;15.37;27.98
19150;BME280;9707;49.158;8.632;2023-01-30T00:22:05;101212.00;;;15.34;28.21
19150;BME280;9707;49.158;8.632;2023-01-30T00:24:30;101223.78;;;15.30;27.70
19150;BME280;9707;49.158;8.632;2023-01-30T00:26:56;101228.34;;;15.28;27.92
19150;BME280;9707;49.158;8.632;2023-01-30T00:29:21;101231.19;;;15.25;27.61
19150;BME280;9707;49.158;8.632;2023-01-30T00:31:46;101236.66;;;15.22;27.87
19150;BME280;9707;49.158;8.632;2023-01-30T00:34:12;101260.03;;;15.20;27.71
19150;BME280;9707;49.158;8.632;2023-01-30T00:36:37;101248.47;;;15.18;27.90
19150;BME280;9707;49.158;8.632;2023-01-30T00:39:02;101250.41;;;15.14;27.92
19150;BME280;9707;49.158;8.632;2023-01-30T00:41:27;101240.63;;;15.13;28.17
19150;BME280;9707;49.158;8.632;2023-01-30T00:44:13;101229.00;;;15.13;28.00
19150;BME280;9707;49.158;8.632;2023-01-30T00:46:56;101238.06;;;15.10;27.90
19150;BME280;9707;49.158;8.632;2023-01-30T00:49:32;101244.44;;;15.08;27.74
19150;BME280;9707;49.158;8.632;2023-01-30T00:51:58;101238.22;;;15.07;27.89
19150;BME280;9707;49.158;8.632;2023-01-30T00:54:23;101237.34;;;15.07;28.16
19150;BME280;9707;49.158;8.632;2023-01-30T00:56:48;101228.34;;;15.08;28.70
19150;BME280;9707;49.158;8.632;2023-01-30T00:59:13;101239.91;;;15.10;28.43
19150;BME280;9707;49.158;8.632;2023-01-30T01:01:39;101235.28;;;15.13;28.40
19150;BME280;9707;49.158;8.632;2023-01-30T01:04:05;101239.56;;;15.17;28.49
19150;BME280;9707;49.158;8.632;2023-01-30T01:06:31;101228.78;;;15.19;28.65
19150;BME280;9707;49.158;8.632;2023-01-30T01:08:56;101232.31;;;15.19;28.49
19150;BME280;9707;49.158;8.632;2023-01-30T01:11:21;101241.25;;;15.20;28.04
19150;BME280;9707;49.158;8.632;2023-01-30T01:13:53;101235.88;;;15.20;28.33
19150;BME280;9707;49.158;8.632;2023-01-30T01:16:20;101232.31;;;15.19;28.21
19150;BME280;9707;49.158;8.632;2023-01-30T01:18:46;101227.81;;;15.20;28.34
19150;BME280;9707;49.158;8.632;2023-01-30T01:21:11;101199.16;;;15.20;28.03
19150;BME280;9707;49.158;8.632;2023-01-30T01:23:37;101182.19;;;15.20;27.95
19150;BME280;9707;49.158;8.632;2023-01-30T01:26:03;101179.63;;;15.17;28.00
19150;BME280;9707;49.158;8.632;2023-01-30T01:28:28;101170.88;;;15.13;27.93
19150;BME280;9707;49.158;8.632;2023-01-30T01:30:54;101167.28;;;15.13;28.11
19150;BME280;9707;49.158;8.632;2023-01-30T01:33:19;101165.63;;;15.10;28.09
19150;BME280;9707;49.158;8.632;2023-01-30T01:35:44;101163.88;;;15.09;28.26
19150;BME280;9707;49.158;8.632;2023-01-30T01:38:12;101157.56;;;15.10;27.99
19150;BME280;9707;49.158;8.632;2023-01-30T01:40:37;101136.19;;;15.09;28.00
19150;BME280;9707;49.158;8.632;2023-01-30T01:43:23;101131.00;;;15.04;27.83
19150;BME280;9707;49.158;8.632;2023-01-30T01:45:52;101142.75;;;15.02;27.70
19150;BME280;9707;49.158;8.632;2023-01-30T01:48:34;101148.28;;;14.99;27.78
19150;BME280;9707;49.158;8.632;2023-01-30T01:51:11;101136.78;;;14.95;27.87
19150;BME280;9707;49.158;8.632;2023-01-30T01:53:42;101139.56;;;14.94;27.83
19150;BME280;9707;49.158;8.632;2023-01-30T01:56:09;101121.69;;;14.93;27.95
19150;BME280;9707;49.158;8.632;2023-01-30T01:59:04;101115.53;;;14.91;27.77
19150;BME280;9707;49.158;8.632;2023-01-30T02:01:28;101122.88;;;14.87;27.96
19150;BME280;9707;49.158;8.632;2023-01-30T02:03:57;101122.94;;;14.86;27.84
19150;BME280;9707;49.158;8.632;2023-01-30T02:06:26;101106.84;;;14.86;28.41
19150;BME280;9707;49.158;8.632;2023-01-30T02:08:58;101115.66;;;14.88;28.22
19150;BME280;9707;49.158;8.632;2023-01-30T02:11:38;101109.28;;;14.90;28.33
19150;BME280;9707;49.158;8.632;2023-01-30T02:14:06;101097.66;;;14.91;28.22
19150;BME280;9707;49.158;8.632;2023-01-30T02:16:32;101090.47;;;14.92;27.79
19150;BME280;9707;49.158;8.632;2023-01-30T02:18:57;101104.81;;;14.91;28.01
19150;BME280;9707;49.158;8.632;2023-01-30T02:21:49;101084.31;;;14.90;27.70
19150;BME280;9707;49.158;8.632;2023-01-30T02:30:21;101077.44;;;14.83;28.16
19150;BME280;9707;49.158;8.632;2023-01-30T02:33:00;101063.19;;;14.82;28.00
19150;BME280;9707;49.158;8.632;2023-01-30T02:35:46;101063.31;;;14.79;28.12
19150;BME280;9707;49.158;8.632;2023-01-30T02:38:35;101055.44;;;14.76;27.55
19150;BME280;9707;49.158;8.632;2023-01-30T02:44:33;101024.50;;;14.68;27.53
19150;BME280;9707;49.158;8.632;2023-01-30T02:47:10;101012.22;;;14.64;27.96
19150;BME280;9707;49.158;8.632;2023-01-30T02:49:41;101024.72;;;14.63;27.80
19150;BME280;9707;49.158;8.632;2023-01-30T02:52:11;101022.00;;;14.65;28.33
19150;BME280;9707;49.158;8.632;2023-01-30T02:54:36;101008.41;;;14.68;28.21
19150;BME280;9707;49.158;8.632;2023-01-30T02:57:02;100985.09;;;14.70;27.96
19150;BME280;9707;49.158;8.632;2023-01-30T02:59:32;100978.72;;;14.72;28.12
19150;BME280;9707;49.158;8.632;2023-01-30T03:02:36;100966.09;;;14.74;28.35
19150;BME280;9707;49.158;8.632;2023-01-30T03:11:02;100996.63;;;14.72;28.12
19150;BME280;9707;49.158;8.632;2023-01-30T03:16:19;101029.63;;;14.74;27.95
19150;BME280;9707;49.158;8.632;2023-01-30T03:18:46;101036.66;;;14.76;28.03
19150;BME280;9707;49.158;8.632;2023-01-30T03:21:11;101036.56;;;14.78;27.81
19150;BME280;9707;49.158;8.632;2023-01-30T03:23:37;101034.81;;;14.77;28.04
19150;BME280;9707;49.158;8.632;2023-01-30T03:26:04;101047.38;;;14.76;27.97
19150;BME280;9707;49.158;8.632;2023-01-30T03:28:31;101042.09;;;14.75;28.21
19150;BME280;9707;49.158;8.632;2023-01-30T03:30:57;101043.03;;;14.74;27.91
19150;BME280;9707;49.158;8.632;2023-01-30T03:33:22;101047.44;;;14.75;27.98
19150;BME280;9707;49.158;8.632;2023-01-30T03:35:48;101046.63;;;14.73;28.09
19150;BME280;9707;49.158;8.632;2023-01-30T03:38:15;101060.13;;;14.71;28.03
19150;BME280;9707;49.158;8.632;2023-01-30T03:40:40;101055.78;;;14.69;27.79
19150;BME280;9707;49.158;8.632;2023-01-30T03:43:06;101057.63;;;14.67;27.89
19150;BME280;9707;49.158;8.632;2023-01-30T03:45:31;101058.59;;;14.66;28.06
19150;BME280;9707;49.158;8.632;2023-01-30T03:47:57;101048.00;;;14.63;27.85
19150;BME280;9707;49.158;8.632;2023-01-30T03:50:22;101048.00;;;14.63;28.03
19150;BME280;9707;49.158;8.632;2023-01-30T03:52:47;101057.91;;;14.61;28.30
19150;BME280;9707;49.158;8.632;2023-01-30T03:55:12;101061.47;;;14.61;28.14
19150;BME280;9707;49.158;8.632;2023-01-30T03:57:38;101070.53;;;14.59;27.39
19150;BME280;9707;49.158;8.632;2023-01-30T04:00:03;101061.53;;;14.60;28.17
19150;BME280;9707;49.158;8.632;2023-01-30T04:02:29;101051.59;;;14.62;28.29
19150;BME280;9707;49.158;8.632;2023-01-30T04:04:54;101051.47;;;14.65;28.71
19150;BME280;9707;49.158;8.632;2023-01-30T04:07:19;101054.84;;;14.70;28.44
19150;BME280;9707;49.158;8.632;2023-01-30T04:09:45;101051.06;;;14.74;28.41
19150;BME280;9707;49.158;8.632;2023-01-30T04:12:10;101034.81;;;14.77;28.06
19150;BME280;9707;49.158;8.632;2023-01-30T04:14:35;101053.59;;;14.77;28.10
19150;BME280;9707;49.158;8.632;2023-01-30T04:17:00;101045.56;;;14.77;28.08
19150;BME280;9707;49.158;8.632;2023-01-30T04:19:26;101050.91;;;14.77;27.92
19150;BME280;9707;49.158;8.632;2023-01-30T04:21:51;101059.91;;;14.76;28.46
19150;BME280;9707;49.158;8.632;2023-01-30T04:24:16;101065.16;;;14.79;28.39
19150;BME280;9707;49.158;8.632;2023-01-30T04:26:42;101073.03;;;14.82;28.62
19150;BME280;9707;49.158;8.632;2023-01-30T04:29:07;101076.53;;;14.84;28.49
19150;BME280;9707;49.158;8.632;2023-01-30T04:31:32;101058.50;;;14.87;28.54
19150;BME280;9707;49.158;8.632;2023-01-30T04:33:58;101041.31;;;14.91;28.70
19150;BME280;9707;49.158;8.632;2023-01-30T04:36:23;101042.09;;;14.93;28.58
19150;BME280;9707;49.158;8.632;2023-01-30T04:38:48;101030.38;;;14.96;28.61
19150;BME280;9707;49.158;8.632;2023-01-30T04:41:14;101036.44;;;14.99;28.60
19150;BME280;9707;49.158;8.632;2023-01-30T04:43:39;101048.84;;;15.02;28.42
19150;BME280;9707;49.158;8.632;2023-01-30T04:46:04;101048.00;;;15.01;28.28
19150;BME280;9707;49.158;8.632;2023-01-30T04:48:30;101054.22;;;15.02;28.43
19150;BME280;9707;49.158;8.632;2023-01-30T04:50:55;101047.13;;;15.01;28.14
19150;BME280;9707;49.158;8.632;2023-01-30T04:53:21;101034.72;;;14.98;28.52
19150;BME280;9707;49.158;8.632;2023-01-30T04:55:47;101025.72;;;14.99;28.61
19150;BME280;9707;49.158;8.632;2023-01-30T04:58:13;101020.22;;;15.02;28.68
19150;BME280;9707;49.158;8.632;2023-01-30T05:00:39;101018.38;;;15.03;28.42
19150;BME280;9707;49.158;8.632;2023-01-30T05:03:05;101009.31;;;15.05;28.13
19150;BME280;9707;49.158;8.632;2023-01-30T05:05:31;100998.59;;;15.05;28.42
19150;BME280;9707;49.158;8.632;2023-01-30T05:07:56;100985.13;;;15.07;28.38
19150;BME280;9707;49.158;8.632;2023-01-30T05:10:22;100977.00;;;15.08;28.08
19150;BME280;9707;49.158;8.632;2023-01-30T05:12:47;100974.31;;;15.08;28.61
19150;BME280;9707;49.158;8.632;2023-01-30T05:15:13;100974.25;;;15.10;28.19
19150;BME280;9707;49.158;8.632;2023-01-30T05:17:39;100961.84;;;15.07;28.01
19150;BME280;9707;49.158;8.632;2023-01-30T05:20:06;100952.06;;;15.06;27.96
19150;BME280;9707;49.158;8.632;2023-01-30T05:22:32;100962.81;;;15.06;27.66
19150;BME280;9707;49.158;8.632;2023-01-30T05:24:57;100947.63;;;15.05;27.88
19150;BME280;9707;49.158;8.632;2023-01-30T05:27:23;100943.28;;;15.03;27.60
19150;BME280;9707;49.158;8.632;2023-01-30T05:29:48;100934.44;;;15.01;27.89
19150;BME280;9707;49.158;8.632;2023-01-30T05:32:14;100941.69;;;14.99;27.45
19150;BME280;9707;49.158;8.632;2023-01-30T05:34:40;100954.28;;;14.97;27.46
19150;BME280;9707;49.158;8.632;2023-01-30T05:37:05;100957.22;;;14.92;27.76
19150;BME280;9707;49.158;8.632;2023-01-30T05:39:30;100952.88;;;14.90;27.85
19150;BME280;9707;49.158;8.632;2023-01-30T05:41:56;100962.94;;;14.85;27.83
19150;BME280;9707;49.158;8.632;2023-01-30T05:44:21;100964.09;;;14.79;28.15
19150;BME280;9707;49.158;8.632;2023-01-30T05:46:47;100965.97;;;14.77;28.06
19150;BME280;9707;49.158;8.632;2023-01-30T05:49:12;100955.31;;;14.76;27.88
19150;BME280;9707;49.158;8.632;2023-01-30T05:51:37;100952.69;;;14.74;28.13
19150;BME280;9707;49.158;8.632;2023-01-30T05:54:03;100941.13;;;14.74;27.96
19150;BME280;9707;49.158;8.632;2023-01-30T05:56:28;100926.06;;;14.71;28.01
19150;BME280;9707;49.158;8.632;2023-01-30T05:58:57;100934.22;;;14.68;28.12
19150;BME280;9707;49.158;8.632;2023-01-30T06:01:23;100937.97;;;14.64;28.45
19150;BME280;9707;49.158;8.632;2023-01-30T06:03:49;100932.78;;;14.61;28.46
19150;BME280;9707;49.158;8.632;2023-01-30T06:06:14;100931.13;;;14.59;28.83
19150;BME280;9707;49.158;8.632;2023-01-30T06:08:40;100943.56;;;14.60;28.48
19150;BME280;9707;49.158;8.632;2023-01-30T06:11:09;100931.91;;;14.61;28.79
19150;BME280;9707;49.158;8.632;2023-01-30T06:13:35;100953.34;;;14.61;28.90
19150;BME280;9707;49.158;8.632;2023-01-30T06:16:01;100963.22;;;14.60;29.00
19150;BME280;9707;49.158;8.632;2023-01-30T06:18:26;100943.50;;;14.61;29.22
19150;BME280;9707;49.158;8.632;2023-01-30T06:20:52;100950.53;;;14.64;29.04
19150;BME280;9707;49.158;8.632;2023-01-30T06:23:18;100946.03;;;14.64;29.34
19150;BME280;9707;49.158;8.632;2023-01-30T06:25:45;100954.97;;;14.65;29.61
19150;BME280;9707;49.158;8.632;2023-01-30T06:28:11;100949.59;;;14.65;29.57
19150;BME280;9707;49.158;8.632;2023-01-30T06:30:37;100956.63;;;14.67;29.87
19150;BME280;9707;49.158;8.632;2023-01-30T06:33:03;100946.63;;;14.71;29.42
19150;BME280;9707;49.158;8.632;2023-01-30T06:35:28;100956.41;;;14.72;29.53
19150;BME280;9707;49.158;8.632;2023-01-30T06:37:53;100956.41;;;14.72;29.43
19150;BME280;9707;49.158;8.632;2023-01-30T06:40:19;100972.50;;;14.72;29.24
19150;BME280;9707;49.158;8.632;2023-01-30T06:42:45;100965.38;;;14.71;29.35
19150;BME280;9707;49.158;8.632;2023-01-30T06:45:12;100951.19;;;14.69;29.33
19150;BME280;9707;49.158;8.632;2023-01-30T06:47:48;100959.31;;;14.67;29.21
19150;BME280;9707;49.158;8.632;2023-01-30T06:50:14;100964.72;;;14.66;29.60
19150;BME280;9707;49.158;8.632;2023-01-30T06:52:50;100963.00;;;14.65;29.17
19150;BME280;9707;49.158;8.632;2023-01-30T06:55:21;100985.41;;;14.64;29.25
19150;BME280;9707;49.158;8.632;2023-01-30T06:57:47;100989.94;;;14.62;29.12
19150;BME280;9707;49.158;8.632;2023-01-30T07:00:18;100999.81;;;14.61;29.36
19150;BME280;9707;49.158;8.632;2023-01-30T07:02:44;100999.09;;;14.58;29.62
19150;BME280;9707;49.158;8.632;2023-01-30T07:05:10;101001.63;;;14.61;29.84
19150;BME280;9707;49.158;8.632;2023-01-30T07:07:36;101002.28;;;14.66;29.48
19150;BME280;9707;49.158;8.632;2023-01-30T07:10:03;101005.75;;;14.68;29.56
19150;BME280;9707;49.158;8.632;2023-01-30T07:12:28;100998.56;;;14.68;29.63
19150;BME280;9707;49.158;8.632;2023-01-30T07:14:54;101003.00;;;14.69;29.28
19150;BME280;9707;49.158;8.632;2023-01-30T07:17:20;100992.34;;;14.68;29.69
19150;BME280;9707;49.158;8.632;2023-01-30T07:19:45;100998.50;;;14.70;30.12
19150;BME280;9707;49.158;8.632;2023-01-30T07:22:11;100991.13;;;14.75;29.78
19150;BME280;9707;49.158;8.632;2023-01-30T07:24:37;100999.00;;;14.78;29.48
19150;BME280;9707;49.158;8.632;2023-01-30T07:27:06;101011.63;;;14.76;29.39
19150;BME280;9707;49.158;8.632;2023-01-30T07:29:34;101018.00;;;14.73;29.56
19150;BME280;9707;49.158;8.632;2023-01-30T07:31:59;101001.03;;;14.73;29.87
19150;BME280;9707;49.158;8.632;2023-01-30T07:34:24;100967.94;;;14.74;29.65
19150;BME280;9707;49.158;8.632;2023-01-30T07:36:50;100964.31;;;14.75;29.28
19150;BME280;9707;49.158;8.632;2023-01-30T07:39:15;100923.28;;;14.73;29.49
19150;BME280;9707;49.158;8.632;2023-01-30T07:41:40;100898.34;;;14.71;29.85
19150;BME280;9707;49.158;8.632;2023-01-30T07:44:05;100880.53;;;14.70;29.44
19150;BME280;9707;49.158;8.632;2023-01-30T07:46:31;100887.75;;;14.68;29.88
19150;BME280;9707;49.158;8.632;2023-01-30T07:49:06;100890.53;;;14.66;29.82
19150;BME280;9707;49.158;8.632;2023-01-30T07:51:32;100903.06;;;14.66;29.88
19150;BME280;9707;49.158;8.632;2023-01-30T07:53:58;100924.69;;;14.63;29.82
19150;BME280;9707;49.158;8.632;2023-01-30T07:56:25;100939.00;;;14.62;29.88
19150;BME280;9707;49.158;8.632;2023-01-30T07:58:50;100965.81;;;14.62;29.50
19150;BME280;9707;49.158;8.632;2023-01-30T08:01:16;100959.59;;;14.61;30.11
19150;BME280;9707;49.158;8.632;2023-01-30T08:03:42;100936.31;;;14.62;29.80
19150;BME280;9707;49.158;8.632;2023-01-30T08:06:12;100913.06;;;14.62;29.62
19150;BME280;9707;49.158;8.632;2023-01-30T08:08:38;100910.44;;;14.61;29.75
19150;BME280;9707;49.158;8.632;2023-01-30T08:11:03;100907.84;;;14.59;29.89
19150;BME280;9707;49.158;8.632;2023-01-30T08:13:29;100916.69;;;14.61;29.90
19150;BME280;9707;49.158;8.632;2023-01-30T08:15:54;100898.78;;;14.62;30.00
19150;BME280;9707;49.158;8.632;2023-01-30T08:18:19;100889.00;;;14.61;29.65
19150;BME280;9707;49.158;8.632;2023-01-30T08:20:44;100894.44;;;14.59;29.70
19150;BME280;9707;49.158;8.632;2023-01-30T08:23:10;100891.84;;;14.58;29.83
19150;BME280;9707;49.158;8.632;2023-01-30T08:25:35;100903.50;;;14.57;30.02
19150;BME280;9707;49.158;8.632;2023-01-30T08:28:01;100884.88;;;14.54;30.02
19150;BME280;9707;49.158;8.632;2023-01-30T08:30:27;100873.34;;;14.52;30.00
19150;BME280;9707;49.158;8.632;2023-01-30T08:32:54;100874.28;;;14.51;30.00
19150;BME280;9707;49.158;8.632;2023-01-30T08:35:19;100880.59;;;14.50;30.00
19150;BME280;9707;49.158;8.632;2023-01-30T08:37:45;100908.19;;;14.52;29.96
19150;BME280;9707;49.158;8.632;2023-01-30T08:40:10;100889.44;;;14.52;30.00
19150;BME280;9707;49.158;8.632;2023-01-30T08:42:36;100904.72;;;14.50;30.29
19150;BME280;9707;49.158;8.632;2023-01-30T08:45:02;100876.13;;;14.50;30.45
19150;BME280;9707;49.158;8.632;2023-01-30T08:47:27;100868.88;;;14.52;29.96
19150;BME280;9707;49.158;8.632;2023-01-30T08:49:52;100859.03;;;14.53;30.08
19150;BME280;9707;49.158;8.632;2023-01-30T08:52:19;100852.78;;;14.52;30.14
19150;BME280;9707;49.158;8.632;2023-01-30T08:54:45;100861.72;;;14.53;30.35
19150;BME280;9707;49.158;8.632;2023-01-30T08:57:13;100861.59;;;14.54;30.14
19150;BME280;9707;49.158;8.632;2023-01-30T08:59:38;100865.94;;;14.57;30.18
19150;BME280;9707;49.158;8.632;2023-01-30T09:02:03;100873.16;;;14.56;30.30
19150;BME280;9707;49.158;8.632;2023-01-30T09:04:29;100883.81;;;14.58;30.09
19150;BME280;9707;49.158;8.632;2023-01-30T09:06:54;100877.56;;;14.57;30.06
19150;BME280;9707;49.158;8.632;2023-01-30T09:09:20;100875.75;;;14.58;29.87
19150;BME280;9707;49.158;8.632;2023-01-30T09:11:45;100891.03;;;14.56;30.13
19150;BME280;9707;49.158;8.632;2023-01-30T09:14:12;100884.88;;;14.54;30.20
19150;BME280;9707;49.158;8.632;2023-01-30T09:16:38;100883.22;;;14.51;30.26
19150;BME280;9707;49.158;8.632;2023-01-30T09:19:03;100877.91;;;14.50;30.33
19150;BME280;9707;49.158;8.632;2023-01-30T09:21:29;100854.81;;;14.47;30.07
19150;BME280;9707;49.158;8.632;2023-01-30T09:23:56;100858.44;;;14.46;30.07
19150;BME280;9707;49.158;8.632;2023-01-30T09:26:22;100857.56;;;14.46;30.22
19150;BME280;9707;49.158;8.632;2023-01-30T09:28:47;100846.78;;;14.47;30.43
19150;BME280;9707;49.158;8.632;2023-01-30T09:31:12;100841.41;;;14.47;30.01
19150;BME280;9707;49.158;8.632;2023-01-30T09:33:37;100864.75;;;14.45;30.31
19150;BME280;9707;49.158;8.632;2023-01-30T09:36:03;100858.63;;;14.42;30.40
19150;BME280;9707;49.158;8.632;2023-01-30T09:38:28;100835.63;;;14.38;30.53
19150;BME280;9707;49.158;8.632;2023-01-30T09:41:07;100843.66;;;14.38;30.37
19150;BME280;9707;49.158;8.632;2023-01-30T09:43:46;100841.91;;;14.37;30.12
19150;BME280;9707;49.158;8.632;2023-01-30T09:46:29;100841.06;;;14.36;30.61
19150;BME280;9707;49.158;8.632;2023-01-30T09:52:16;100847.44;;;14.34;30.51
19150;BME280;9707;49.158;8.632;2023-01-30T09:54:46;100842.06;;;14.34;30.75
19150;BME280;9707;49.158;8.632;2023-01-30T09:59:50;100840.41;;;14.31;30.88
19150;BME280;9707;49.158;8.632;2023-01-30T10:02:28;100851.06;;;14.33;30.99
19150;BME280;9707;49.158;8.632;2023-01-30T10:04:58;100847.44;;;14.34;30.75
19150;BME280;9707;49.158;8.632;2023-01-30T10:08:03;100843.78;;;14.35;31.01
19150;BME280;9707;49.158;8.632;2023-01-30T10:10:47;100847.44;;;14.34;30.99
19150;BME280;9707;49.158;8.632;2023-01-30T10:15:54;100846.47;;;14.35;31.21
19150;BME280;9707;49.158;8.632;2023-01-30T10:18:46;100851.78;;;14.36;31.13
19150;BME280;9707;49.158;8.632;2023-01-30T10:21:36;100841.91;;;14.37;31.67
19150;BME280;9707;49.158;8.632;2023-01-30T10:26:50;100842.56;;;14.42;31.79
19150;BME280;9707;49.158;8.632;2023-01-30T10:29:22;100837.94;;;14.45;31.58
19150;BME280;9707;49.158;8.632;2023-01-30T10:31:57;100842.19;;;14.49;31.70
19150;BME280;9707;49.158;8.632;2023-01-30T10:34:30;100849.31;;;14.50;31.67
19150;BME280;9707;49.158;8.632;2023-01-30T10:40:20;100837.66;;;14.51;31.79
19150;BME280;9707;49.158;8.632;2023-01-30T10:43:00;100843.97;;;14.50;31.65
19150;BME280;9707;49.158;8.632;2023-01-30T10:45:33;100849.31;;;14.50;31.74
19150;BME280;9707;49.158;8.632;2023-01-30T10:48:28;100846.53;;;14.52;31.96
19150;BME280;9707;49.158;8.632;2023-01-30T10:50:58;100849.22;;;14.52;31.88
19150;BME280;9707;49.158;8.632;2023-01-30T10:56:09;100834.97;;;14.51;32.15
19150;BME280;9707;49.158;8.632;2023-01-30T10:58:47;100852.78;;;14.52;32.15
19150;BME280;9707;49.158;8.632;2023-01-30T11:01:31;100853.66;;;14.53;32.09
19150;BME280;9707;49.158;8.632;2023-01-30T11:04:04;100849.22;;;14.52;32.10
19150;BME280;9707;49.158;8.632;2023-01-30T11:06:32;100851.91;;;14.52;32.36
19150;BME280;9707;49.158;8.632;2023-01-30T11:08:58;100832.22;;;14.53;32.23
19150;BME280;9707;49.158;8.632;2023-01-30T11:11:33;100830.38;;;14.53;32.27
19150;BME280;9707;49.158;8.632;2023-01-30T11:14:03;100840.16;;;14.54;32.17
19150;BME280;9707;49.158;8.632;2023-01-30T11:16:29;100838.44;;;14.53;32.54
19150;BME280;9707;49.158;8.632;2023-01-30T11:18:55;100845.63;;;14.53;32.44
19150;BME280;9707;49.158;8.632;2023-01-30T11:21:25;100854.59;;;14.52;32.49
19150;BME280;9707;49.158;8.632;2023-01-30T11:23:53;100855.53;;;14.51;32.32
19150;BME280;9707;49.158;8.632;2023-01-30T11:26:23;100860.09;;;14.49;32.22
19150;BME280;9707;49.158;8.632;2023-01-30T11:28:49;100860.97;;;14.49;32.49
19150;BME280;9707;49.158;8.632;2023-01-30T11:31:20;100853.78;;;14.50;32.51
19150;BME280;9707;49.158;8.632;2023-01-30T11:33:59;100845.69;;;14.51;32.63
19150;BME280;9707;49.158;8.632;2023-01-30T11:36:28;100853.50;;;14.56;32.50
19150;BME280;9707;49.158;8.632;2023-01-30T11:38:56;100850.63;;;14.60;32.60
19150;BME280;9707;49.158;8.632;2023-01-30T11:41:22;100839.72;;;14.63;32.63
19150;BME280;9707;49.158;8.632;2023-01-30T11:43:48;100835.09;;;14.67;32.78
19150;BME280;9707;49.158;8.632;2023-01-30T11:46:17;100837.63;;;14.70;32.93
19150;BME280;9707;49.158;8.632;2023-01-30T11:48:54;100847.28;;;14.74;33.12
19150;BME280;9707;49.158;8.632;2023-01-30T11:51:22;100838.03;;;14.79;32.82
19150;BME280;9707;49.158;8.632;2023-01-30T11:54:51;100836.06;;;14.83;32.68
19150;BME280;9707;49.158;8.632;2023-01-30T11:56:57;100833.25;;;14.86;32.66
19150;BME280;9707;49.158;8.632;2023-01-30T11:59:37;100842.25;;;14.85;32.94
19150;BME280;9707;49.158;8.632;2023-01-30T12:02:24;100835.16;;;14.84;32.97
19150;BME280;9707;49.158;8.632;2023-01-30T12:04:53;100839.56;;;14.85;32.85
19150;BME280;9707;49.158;8.632;2023-01-30T12:07:23;100844.94;;;14.85;32.95
19150;BME280;9707;49.158;8.632;2023-01-30T12:09:49;100843.09;;;14.85;32.97
19150;BME280;9707;49.158;8.632;2023-01-30T12:12:25;100848.47;;;14.85;32.75
19150;BME280;9707;49.158;8.632;2023-01-30T12:14:52;100847.53;;;14.86;33.06
19150;BME280;9707;49.158;8.632;2023-01-30T12:17:22;100845.56;;;14.90;32.96
19150;BME280;9707;49.158;8.632;2023-01-30T12:20:12;100848.00;;;14.94;32.94
19150;BME280;9707;49.158;8.632;2023-01-30T12:22:53;100842.44;;;14.99;32.90
19150;BME280;9707;49.158;8.632;2023-01-30T12:25:26;100847.63;;;15.02;32.65
19150;BME280;9707;49.158;8.632;2023-01-30T12:28:01;100845.75;;;15.04;32.64
19150;BME280;9707;49.158;8.632;2023-01-30T12:30:35;100846.69;;;15.03;32.43
19150;BME280;9707;49.158;8.632;2023-01-30T12:33:05;100852.22;;;15.00;32.83
19150;BME280;9707;49.158;8.632;2023-01-30T12:35:43;100841.56;;;14.98;32.86
19150;BME280;9707;49.158;8.632;2023-01-30T12:38:24;100849.53;;;15.00;32.51
19150;BME280;9707;49.158;8.632;2023-01-30T12:41:05;100852.28;;;14.98;32.76
19150;BME280;9707;49.158;8.632;2023-01-30T12:43:38;100857.59;;;15.00;32.86
19150;BME280;9707;49.158;8.632;2023-01-30T12:52:06;100843.16;;;15.02;32.80
19150;BME280;9707;49.158;8.632;2023-01-30T12:54:40;100827.00;;;15.04;33.05
19150;BME280;9707;49.158;8.632;2023-01-30T12:57:14;100832.09;;;15.08;32.47
19150;BME280;9707;49.158;8.632;2023-01-30T12:59:59;100833.78;;;15.11;32.51
19150;BME280;9707;49.158;8.632;2023-01-30T13:05:28;100862.66;;;15.06;33.03
19150;BME280;9707;49.158;8.632;2023-01-30T13:10:59;100844.81;;;15.05;32.93
19150;BME280;9707;49.158;8.632;2023-01-30T13:18:54;100868.78;;;15.08;32.55
19150;BME280;9707;49.158;8.632;2023-01-30T13:21:44;100881.28;;;15.09;32.74
19150;BME280;9707;49.158;8.632;2023-01-30T13:26:57;100867.78;;;15.10;32.76
19150;BME280;9707;49.158;8.632;2023-01-30T13:29:30;100864.16;;;15.11;32.77
19150;BME280;9707;49.158;8.632;2023-01-30T13:31:58;100866.69;;;15.14;32.89
19150;BME280;9707;49.158;8.632;2023-01-30T13:34:38;100861.31;;;15.14;33.08
19150;BME280;9707;49.158;8.632;2023-01-30T13:37:07;100857.78;;;15.14;32.73
19150;BME280;9707;49.158;8.632;2023-01-30T13:39:48;100856.00;;;15.13;32.87
19150;BME280;9707;49.158;8.632;2023-01-30T13:42:25;100856.19;;;15.10;32.78
19150;BME280;9707;49.158;8.632;2023-01-30T13:44:54;100844.75;;;15.06;33.00
19150;BME280;9707;49.158;8.632;2023-01-30T13:47:30;100849.22;;;15.06;33.02
19150;BME280;9707;49.158;8.632;2023-01-30T13:58:32;100862.72;;;15.04;33.25
19150;BME280;9707;49.158;8.632;2023-01-30T14:00:59;100854.72;;;15.03;33.16
19150;BME280;9707;49.158;8.632;2023-01-30T14:03:29;100853.00;;;15.02;33.17
19150;BME280;9707;49.158;8.632;2023-01-30T14:11:55;100853.00;;;15.02;33.63
19150;BME280;9707;49.158;8.632;2023-01-30T14:14:24;100849.47;;;15.01;33.47
19150;BME280;9707;49.158;8.632;2023-01-30T14:16:53;100847.63;;;15.02;33.63
19150;BME280;9707;49.158;8.632;2023-01-30T14:19:32;100845.75;;;15.04;33.63